createdAt,value
2023-04-15T00:01:10.549Z,4.00
2023-04-15T00:03:40.340Z,4.05
2023-04-15T00:06:08.674Z,4.53
2023-04-15T00:08:36.710Z,4.22
2023-04-15T00:11:06.072Z,4.38
2023-04-15T00:13:34.229Z,4.35
2023-04-15T00:16:02.406Z,4.55
2023-04-15T00:18:31.967Z,4.88
2023-04-15T00:21:01.157Z,3.95
2023-04-15T00:23:29.388Z,4.15
2023-04-15T00:25:57.365Z,4.22
2023-04-15T00:28:25.337Z,4.18
2023-04-15T00:30:53.325Z,4.68
2023-04-15T00:33:21.409Z,4.35
2023-04-15T00:35:49.265Z,4.22
2023-04-15T00:38:20.219Z,4.15
2023-04-15T00:40:48.386Z,4.40
2023-04-15T00:43:16.556Z,5.00
2023-04-15T00:45:47.260Z,4.25
2023-04-15T00:48:15.673Z,4.30
2023-04-15T00:50:43.503Z,4.78
2023-04-15T00:53:11.418Z,4.50
2023-04-15T00:55:41.270Z,4.47
2023-04-15T00:58:09.146Z,4.07
2023-04-15T01:00:37.190Z,4.95
2023-04-15T01:03:05.311Z,3.72
2023-04-15T01:05:33.704Z,4.70
2023-04-15T01:08:02.048Z,4.95
2023-04-15T01:10:30.060Z,5.00
2023-04-15T01:12:59.516Z,4.72
2023-04-15T01:15:27.702Z,4.72
2023-04-15T01:17:56.045Z,4.53
2023-04-15T01:20:23.962Z,4.70
2023-04-15T01:22:52.952Z,4.30
2023-04-15T01:25:21.970Z,4.40
2023-04-15T01:27:51.231Z,4.68
2023-04-15T01:30:19.262Z,4.47
2023-04-15T01:32:48.178Z,5.00
2023-04-15T01:35:16.011Z,4.80
2023-04-15T01:37:44.986Z,4.22
2023-04-15T01:40:13.967Z,4.00
2023-04-15T01:42:41.861Z,4.50
2023-04-15T01:45:12.608Z,4.80
2023-04-15T01:47:40.491Z,4.55
2023-04-15T01:50:11.798Z,4.30
2023-04-15T01:52:39.899Z,4.38
2023-04-15T01:55:09.114Z,4.30
2023-04-15T01:57:37.222Z,4.38
2023-04-15T02:00:07.813Z,4.80
2023-04-15T02:02:46.058Z,4.57
2023-04-15T02:05:14.009Z,4.03
2023-04-15T02:07:41.804Z,4.47
2023-04-15T02:10:11.815Z,5.13
2023-04-15T02:12:40.738Z,4.80
2023-04-15T02:15:10.215Z,5.28
2023-04-15T02:17:38.712Z,4.97
2023-04-15T02:20:10.674Z,4.65
2023-04-15T02:22:38.605Z,4.45
2023-04-15T02:25:07.786Z,4.82
2023-04-15T02:27:37.011Z,5.00
2023-04-15T02:30:05.473Z,4.82
2023-04-15T02:32:36.183Z,5.05
2023-04-15T02:35:05.771Z,4.93
2023-04-15T02:37:41.698Z,5.18
2023-04-15T02:40:12.330Z,5.38
2023-04-15T02:42:40.461Z,5.30
2023-04-15T02:45:12.383Z,5.50
2023-04-15T02:47:41.732Z,5.13
2023-04-15T02:50:12.581Z,5.15
2023-04-15T02:52:44.967Z,5.53
2023-04-15T02:55:13.365Z,5.63
2023-04-15T02:57:42.109Z,5.40
2023-04-15T03:00:12.740Z,5.35
2023-04-15T03:02:44.159Z,5.50
2023-04-15T03:05:13.623Z,5.32
2023-04-15T03:07:48.480Z,5.68
2023-04-15T03:10:16.706Z,5.20
2023-04-15T03:12:44.792Z,6.00
2023-04-15T03:15:17.799Z,6.00
2023-04-15T03:17:49.636Z,6.40
2023-04-15T03:20:18.500Z,5.60
2023-04-15T03:22:47.988Z,6.15
2023-04-15T03:25:15.964Z,6.20
2023-04-15T03:27:44.424Z,6.22
2023-04-15T03:30:14.233Z,7.05
2023-04-15T03:32:42.754Z,6.38
2023-04-15T03:35:11.009Z,6.50
2023-04-15T03:37:39.150Z,6.60
2023-04-15T03:40:10.300Z,6.35
2023-04-15T03:42:38.381Z,6.28
2023-04-15T03:45:07.709Z,6.57
2023-04-15T03:47:35.775Z,6.45
2023-04-15T03:50:03.816Z,5.95
2023-04-15T03:52:31.761Z,6.75
2023-04-15T03:54:59.803Z,6.55
2023-04-15T03:57:29.209Z,7.15
2023-04-15T03:59:57.349Z,6.82
2023-04-15T04:02:25.300Z,6.60
2023-04-15T04:04:53.440Z,7.07
2023-04-15T04:07:21.735Z,6.93
2023-04-15T04:09:49.603Z,6.95
2023-04-15T04:12:17.669Z,7.13
2023-04-15T04:14:47.236Z,6.93
2023-04-15T04:17:15.127Z,6.45
2023-04-15T04:19:43.120Z,7.32
2023-04-15T04:22:11.504Z,7.97
2023-04-15T04:24:39.331Z,7.20
2023-04-15T04:27:07.313Z,7.43
2023-04-15T04:29:35.391Z,7.55
2023-04-15T04:32:04.885Z,7.20
2023-04-15T04:34:32.924Z,8.13
2023-04-15T04:37:00.905Z,7.47
2023-04-15T04:39:28.855Z,7.65
2023-04-15T04:41:57.466Z,7.50
2023-04-15T04:44:25.435Z,7.32
2023-04-15T04:46:53.501Z,6.85
2023-04-15T04:49:22.736Z,7.20
2023-04-15T04:51:50.860Z,7.60
2023-04-15T04:54:18.908Z,7.43
2023-04-15T04:56:47.192Z,7.43
2023-04-15T04:59:15.167Z,7.80
2023-04-15T05:01:43.186Z,7.75
2023-04-15T05:04:11.576Z,7.45
2023-04-15T05:06:40.890Z,7.75
2023-04-15T05:09:08.725Z,7.20
2023-04-15T05:11:36.777Z,7.90
2023-04-15T05:14:04.937Z,7.97
2023-04-15T05:16:32.962Z,7.80
2023-04-15T05:19:01.035Z,8.15
2023-04-15T05:21:29.348Z,7.93
2023-04-15T05:23:58.591Z,8.55
2023-04-15T05:26:27.646Z,7.15
2023-04-15T05:28:55.565Z,8.73
2023-04-15T05:31:23.634Z,7.95
2023-04-15T05:33:51.572Z,8.63
2023-04-15T05:36:19.606Z,8.20
2023-04-15T05:38:47.517Z,7.82
2023-04-15T05:41:19.730Z,7.78
2023-04-15T05:43:47.908Z,7.85
2023-04-15T05:46:16.066Z,8.55
2023-04-15T05:48:43.983Z,8.73
2023-04-15T05:51:11.811Z,8.43
2023-04-15T05:53:41.350Z,8.90
2023-04-15T05:56:09.328Z,8.40
2023-04-15T05:58:39.347Z,8.50
2023-04-15T06:01:07.468Z,9.18
2023-04-15T06:03:35.734Z,9.15
2023-04-15T06:06:03.798Z,8.88
2023-04-15T06:08:31.888Z,8.35
2023-04-15T06:10:59.989Z,8.95
2023-04-15T06:13:28.178Z,9.52
2023-04-15T06:15:57.507Z,8.68
2023-04-15T06:18:25.357Z,8.43
2023-04-15T06:20:53.689Z,9.07
2023-04-15T06:23:21.656Z,8.77
2023-04-15T06:25:49.626Z,10.75
2023-04-15T06:28:17.519Z,10.10
2023-04-15T06:30:45.666Z,9.30
2023-04-15T06:33:15.200Z,8.75
2023-04-15T06:35:43.451Z,9.95
2023-04-15T06:38:11.525Z,9.00
2023-04-15T06:40:39.615Z,9.55
2023-04-15T06:43:08.018Z,9.95
2023-04-15T06:45:36.107Z,10.70
2023-04-15T06:48:04.171Z,9.75
2023-04-15T06:50:33.767Z,9.82
2023-04-15T06:53:02.198Z,9.63
2023-04-15T06:55:30.108Z,9.45
2023-04-15T06:57:58.320Z,10.07
2023-04-15T07:00:26.286Z,9.98
2023-04-15T07:02:55.665Z,9.50
2023-04-15T07:05:25.461Z,9.80
2023-04-15T07:07:55.017Z,10.65
2023-04-15T07:10:23.907Z,9.70
2023-04-15T07:12:52.695Z,9.88
2023-04-15T07:15:20.911Z,9.40
2023-04-15T07:17:48.894Z,9.60
2023-04-15T07:20:16.923Z,8.85
2023-04-15T07:22:44.871Z,8.82
2023-04-15T07:25:14.420Z,7.22
2023-04-15T07:27:42.666Z,7.80
2023-04-15T07:30:11.499Z,7.47
2023-04-15T07:32:40.386Z,6.70
2023-04-15T07:35:09.833Z,6.18
2023-04-15T07:37:38.150Z,5.78
2023-04-15T07:40:09.109Z,5.88
2023-04-15T07:42:40.750Z,6.15
2023-04-15T07:45:10.151Z,5.68
2023-04-15T07:47:38.209Z,5.63
2023-04-15T07:50:06.865Z,5.75
2023-04-15T07:52:39.374Z,6.63
2023-04-15T07:55:08.725Z,6.57
2023-04-15T07:57:38.486Z,7.30
2023-04-15T08:00:07.811Z,6.72
2023-04-15T08:02:42.927Z,7.18
2023-04-15T08:05:11.526Z,6.90
2023-04-15T08:07:39.556Z,6.85
2023-04-15T08:10:09.032Z,7.35
2023-04-15T08:12:38.563Z,6.30
2023-04-15T08:15:08.399Z,6.30
2023-04-15T08:17:36.495Z,7.57
2023-04-15T08:20:05.934Z,6.20
2023-04-15T08:22:34.581Z,6.47
2023-04-15T08:25:02.491Z,6.07
2023-04-15T08:27:30.463Z,6.35
2023-04-15T08:30:00.203Z,6.82
2023-04-15T08:32:29.522Z,6.05
2023-04-15T08:34:57.410Z,6.80
2023-04-15T08:37:27.053Z,6.53
2023-04-15T08:39:54.916Z,6.88
2023-04-15T08:42:29.603Z,6.63
2023-04-15T08:44:59.067Z,6.25
2023-04-15T08:47:28.399Z,6.70
2023-04-15T08:49:56.828Z,5.55
2023-04-15T08:52:25.945Z,5.50
2023-04-15T08:54:57.765Z,5.43
2023-04-15T08:57:27.575Z,5.70
2023-04-15T08:59:57.599Z,5.50
2023-04-15T09:02:28.610Z,5.85
2023-04-15T09:04:56.790Z,5.72
2023-04-15T09:07:24.741Z,5.45
2023-04-15T09:09:53.069Z,5.80
2023-04-15T09:12:20.912Z,5.25
2023-04-15T09:14:50.124Z,5.03
2023-04-15T09:17:21.843Z,5.10
2023-04-15T09:19:54.471Z,5.20
2023-04-15T09:22:22.665Z,4.25
2023-04-15T09:24:50.713Z,4.60
2023-04-15T09:27:18.978Z,4.13
2023-04-15T09:29:51.336Z,3.75
2023-04-15T09:32:19.791Z,3.03
2023-04-15T09:34:48.222Z,2.83
2023-04-15T09:37:31.628Z,2.38
2023-04-15T09:40:00.738Z,2.70
2023-04-15T09:42:28.774Z,2.33
2023-04-15T09:44:56.868Z,2.55
2023-04-15T09:47:31.710Z,2.78
2023-04-15T09:50:00.665Z,2.75
2023-04-15T09:52:30.050Z,2.92
2023-04-15T09:54:59.262Z,2.80
2023-04-15T09:57:35.461Z,2.28
2023-04-15T10:00:04.009Z,2.90
2023-04-15T10:02:34.953Z,2.78
2023-04-15T10:05:03.497Z,2.92
2023-04-15T10:07:33.986Z,3.00
2023-04-15T10:10:02.655Z,2.78
2023-04-15T10:12:30.813Z,2.95
2023-04-15T10:15:00.970Z,2.60
2023-04-15T10:17:31.602Z,2.88
2023-04-15T10:20:01.254Z,2.90
2023-04-15T10:22:29.567Z,2.95
2023-04-15T10:25:00.101Z,3.10
2023-04-15T10:27:28.941Z,2.83
2023-04-15T10:29:58.346Z,3.15
2023-04-15T10:32:26.687Z,3.35
2023-04-15T10:34:55.419Z,3.70
2023-04-15T10:37:26.805Z,3.67
2023-04-15T10:39:54.666Z,3.50
2023-04-15T10:42:23.865Z,3.65
2023-04-15T10:44:53.430Z,3.53
2023-04-15T10:47:22.802Z,3.47
2023-04-15T10:49:52.488Z,3.38
2023-04-15T10:52:25.081Z,3.33
2023-04-15T10:55:03.581Z,3.33
2023-04-15T10:57:39.781Z,3.65
2023-04-15T11:00:15.578Z,3.40
2023-04-15T11:02:46.028Z,3.17
2023-04-15T11:05:14.446Z,3.33
2023-04-15T11:07:49.875Z,2.95
2023-04-15T11:10:52.929Z,2.95
2023-04-15T11:13:34.433Z,3.03
2023-04-15T11:16:03.989Z,3.42
2023-04-15T11:18:33.753Z,4.13
2023-04-15T11:21:03.599Z,3.00
2023-04-15T11:23:34.174Z,3.03
2023-04-15T11:26:03.940Z,3.25
2023-04-15T11:28:34.029Z,3.03
2023-04-15T11:31:08.631Z,3.10
2023-04-15T11:33:36.859Z,2.88
2023-04-15T11:36:05.290Z,2.83
2023-04-15T11:38:33.939Z,2.67
2023-04-15T11:41:02.044Z,2.72
2023-04-15T11:43:35.504Z,2.63
2023-04-15T11:46:04.536Z,2.70
2023-04-15T11:48:33.605Z,2.25
2023-04-15T11:51:03.006Z,2.22
2023-04-15T11:53:38.562Z,2.72
2023-04-15T11:56:07.757Z,1.90
2023-04-15T11:58:39.280Z,2.50
2023-04-15T12:01:08.565Z,2.40
2023-04-15T12:03:41.443Z,2.03
2023-04-15T12:06:13.047Z,2.38
2023-04-15T12:08:52.848Z,2.13
2023-04-15T12:11:21.318Z,2.40
2023-04-15T12:13:52.093Z,2.22
2023-04-15T12:16:20.596Z,2.65
2023-04-15T12:18:48.823Z,2.97
2023-04-15T12:21:16.920Z,2.80
2023-04-15T12:23:49.812Z,3.17
2023-04-15T12:26:18.267Z,2.72
2023-04-15T12:28:46.897Z,2.70
2023-04-15T12:31:16.294Z,2.30
2023-04-15T12:33:44.424Z,2.20
2023-04-15T12:36:12.610Z,2.05
2023-04-15T12:38:40.791Z,1.92
2023-04-15T12:41:08.730Z,1.70
2023-04-15T12:43:37.066Z,2.40
2023-04-15T12:46:04.966Z,1.85
2023-04-15T12:48:34.400Z,1.50
2023-04-15T12:51:03.887Z,2.00
2023-04-15T12:53:33.421Z,2.00
2023-04-15T12:56:01.423Z,1.60
2023-04-15T12:58:31.025Z,1.60
2023-04-15T13:00:59.078Z,1.63
2023-04-15T13:03:27.465Z,1.80
2023-04-15T13:05:57.847Z,1.58
2023-04-15T13:08:26.201Z,1.50
2023-04-15T13:10:54.420Z,1.65
2023-04-15T13:13:22.537Z,1.30
2023-04-15T13:15:50.659Z,1.70
2023-04-15T13:18:18.961Z,1.40
2023-04-15T13:20:46.852Z,1.42
2023-04-15T13:23:16.740Z,1.48
2023-04-15T13:25:44.717Z,1.50
2023-04-15T13:28:13.138Z,1.70
2023-04-15T13:30:42.988Z,1.70
2023-04-15T13:33:11.424Z,1.60
2023-04-15T13:35:39.674Z,1.80
2023-04-15T13:38:07.493Z,1.50
2023-04-15T13:40:37.182Z,1.48
2023-04-15T13:43:05.644Z,1.13
2023-04-15T13:45:33.911Z,1.05
2023-04-15T13:48:02.105Z,1.20
2023-04-15T13:50:30.277Z,1.30
2023-04-15T13:52:58.380Z,1.40
2023-04-15T13:55:27.107Z,1.10
2023-04-15T13:57:57.809Z,1.30
2023-04-15T14:00:26.474Z,1.95
2023-04-15T14:02:54.810Z,1.13
2023-04-15T14:05:22.828Z,1.33
2023-04-15T14:07:51.211Z,2.00
2023-04-15T14:10:19.245Z,1.30
2023-04-15T14:12:47.361Z,1.23
2023-04-15T14:15:16.948Z,1.40
2023-04-15T14:17:45.319Z,1.42
2023-04-15T14:20:16.800Z,1.42
2023-04-15T14:22:45.139Z,1.70
2023-04-15T14:25:23.177Z,1.65
2023-04-15T14:27:58.602Z,1.80
2023-04-15T14:30:27.947Z,1.80
2023-04-15T14:32:56.094Z,1.48
2023-04-15T14:35:26.649Z,1.73
2023-04-15T14:37:54.898Z,2.00
2023-04-15T14:40:22.988Z,1.80
2023-04-15T14:42:51.132Z,2.65
2023-04-15T14:45:19.426Z,1.73
2023-04-15T14:47:48.935Z,3.15
2023-04-15T14:50:17.186Z,29.50
2023-04-15T14:52:45.168Z,5.30
2023-04-15T14:55:14.135Z,2.45
2023-04-15T14:58:02.536Z,2.47
2023-04-15T15:00:31.048Z,2.20
2023-04-15T15:03:00.639Z,2.60
2023-04-15T15:05:29.004Z,2.55
2023-04-15T15:07:56.957Z,2.42
2023-04-15T15:10:33.699Z,2.55
2023-04-15T15:13:15.027Z,2.30
2023-04-15T15:15:43.238Z,2.60
2023-04-15T15:18:13.120Z,2.13
2023-04-15T15:20:41.266Z,2.22
2023-04-15T15:23:09.062Z,1.90
2023-04-15T15:25:37.187Z,2.20
2023-04-15T15:28:05.190Z,2.55
2023-04-15T15:30:33.177Z,3.05
2023-04-15T15:33:01.205Z,2.30
2023-04-15T15:35:31.126Z,1.75
2023-04-15T15:38:00.833Z,2.28
2023-04-15T15:40:28.764Z,2.22
2023-04-15T15:42:56.830Z,2.53
2023-04-15T15:45:24.777Z,2.45
2023-04-15T15:47:53.100Z,1.80
2023-04-15T15:50:21.799Z,1.67
2023-04-15T15:52:51.156Z,1.88
2023-04-15T15:55:19.113Z,3.45
2023-04-15T15:57:47.205Z,2.17
2023-04-15T16:00:15.822Z,1.67
2023-04-15T16:05:16.079Z,2.25
2023-04-15T16:07:44.039Z,1.73
2023-04-15T16:10:14.238Z,1.48
2023-04-15T16:12:42.645Z,2.47
2023-04-15T16:15:12.071Z,2.90
2023-04-15T16:17:42.342Z,2.70
2023-04-15T16:20:11.066Z,2.00
2023-04-15T16:22:40.494Z,1.50
2023-04-15T16:25:09.024Z,2.10
2023-04-15T16:30:10.951Z,1.90
2023-04-15T16:32:38.916Z,2.40
2023-04-15T16:35:08.085Z,1.85
2023-04-15T16:37:36.313Z,1.70
2023-04-15T16:40:04.652Z,1.52
2023-04-15T16:42:32.550Z,1.30
2023-04-15T16:45:01.884Z,1.70
2023-04-15T16:47:29.886Z,1.63
2023-04-15T16:49:57.978Z,2.00
2023-04-15T16:52:25.838Z,1.90
2023-04-15T16:54:54.054Z,2.28
2023-04-15T16:57:22.185Z,1.80
2023-04-15T16:59:52.852Z,1.83
2023-04-15T17:02:22.252Z,2.00
2023-04-15T17:04:50.326Z,1.58
2023-04-15T17:07:18.476Z,1.92
2023-04-15T17:09:46.298Z,2.03
2023-04-15T17:12:15.035Z,2.05
2023-04-15T17:14:43.121Z,1.77
2023-04-15T17:17:11.190Z,1.98
2023-04-15T17:19:40.640Z,2.22
2023-04-15T17:22:08.666Z,3.00
2023-04-15T17:24:36.980Z,2.72
2023-04-15T17:27:05.035Z,2.00
2023-04-15T17:29:33.974Z,2.40
2023-04-15T17:32:01.911Z,1.70
2023-04-15T17:34:49.641Z,2.28
2023-04-15T17:37:19.699Z,2.45
2023-04-15T17:39:48.199Z,5.40
2023-04-15T17:42:16.949Z,5.35
2023-04-15T17:44:46.033Z,4.28
2023-04-15T17:47:14.062Z,2.45
2023-04-15T17:49:41.945Z,2.05
2023-04-15T17:52:09.901Z,2.20
2023-04-15T17:54:39.267Z,2.00
2023-04-15T17:57:07.323Z,2.42
2023-04-15T17:59:35.405Z,3.28
2023-04-15T18:02:03.404Z,2.10
2023-04-15T18:04:31.742Z,2.20
2023-04-15T18:06:59.780Z,2.45
2023-04-15T18:09:28.195Z,2.13
2023-04-15T18:11:58.080Z,2.03
2023-04-15T18:14:34.207Z,2.25
2023-04-15T18:17:03.431Z,2.13
2023-04-15T18:19:31.874Z,1.92
2023-04-15T18:22:00.911Z,2.30
2023-04-15T18:24:29.002Z,3.97
2023-04-15T18:26:59.130Z,2.85
2023-04-15T18:29:29.013Z,2.95
2023-04-15T18:32:00.640Z,2.20
2023-04-15T18:34:30.697Z,2.25
2023-04-15T18:37:03.278Z,2.20
2023-04-15T18:39:42.611Z,1.52
2023-04-15T18:42:16.824Z,2.00
2023-04-15T18:44:49.018Z,1.70
2023-04-15T18:47:36.625Z,1.88
2023-04-15T18:53:15.974Z,2.03
2023-04-15T18:56:01.760Z,2.00
2023-04-15T18:59:18.305Z,1.95
2023-04-15T19:01:51.882Z,4.72
2023-04-15T19:04:44.801Z,3.25
2023-04-15T19:07:30.497Z,3.63
2023-04-15T19:10:16.231Z,3.60
2023-04-15T19:13:18.728Z,3.80
2023-04-15T19:15:56.676Z,2.85
2023-04-15T19:18:31.468Z,2.58
2023-04-15T19:21:02.728Z,3.40
2023-04-15T19:23:34.985Z,3.78
2023-04-15T19:26:19.051Z,3.78
2023-04-15T19:29:00.157Z,3.30
2023-04-15T19:31:33.518Z,2.67
2023-04-15T19:36:49.969Z,2.67
2023-04-15T19:39:56.277Z,2.30
2023-04-15T19:42:29.208Z,2.28
2023-04-15T19:45:15.545Z,2.20
2023-04-15T19:48:03.501Z,2.03
2023-04-15T19:50:55.092Z,2.10
2023-04-15T19:53:41.575Z,2.58
2023-04-15T19:56:32.914Z,2.50
2023-04-15T19:59:05.839Z,2.22
2023-04-15T20:01:35.750Z,2.28
2023-04-15T20:04:06.177Z,2.13
2023-04-15T20:06:35.085Z,2.30
2023-04-15T20:09:04.170Z,2.33
2023-04-15T20:12:48.080Z,2.00
2023-04-15T20:14:22.885Z,2.30
2023-04-15T20:16:52.558Z,2.03
2023-04-15T20:19:22.042Z,2.10
2023-04-15T20:21:52.537Z,2.55
2023-04-15T20:24:24.393Z,2.55
2023-04-15T20:26:53.504Z,2.22
2023-04-15T20:29:25.513Z,1.75
2023-04-15T20:31:56.865Z,1.92
2023-04-15T20:34:27.974Z,1.67
2023-04-15T20:37:00.257Z,2.05
2023-04-15T20:39:28.833Z,2.40
2023-04-15T20:42:04.440Z,2.08
2023-04-15T20:44:34.867Z,2.13
2023-04-15T20:47:04.122Z,2.47
2023-04-15T20:49:37.817Z,2.50
2023-04-15T20:52:10.336Z,1.90
2023-04-15T20:54:40.600Z,2.38
2023-04-15T20:57:12.303Z,2.45
2023-04-15T20:59:44.104Z,2.45
2023-04-15T21:02:15.080Z,1.90
2023-04-15T21:04:47.330Z,1.88
2023-04-15T21:07:19.398Z,1.88
2023-04-15T21:09:49.348Z,2.08
2023-04-15T21:12:20.870Z,2.00
2023-04-15T21:14:51.500Z,2.30
2023-04-15T21:17:22.369Z,1.77
2023-04-15T21:19:55.540Z,2.30
2023-04-15T21:22:23.904Z,2.70
2023-04-15T21:24:51.788Z,1.98
2023-04-15T21:27:20.133Z,2.17
2023-04-15T21:29:48.112Z,1.95
2023-04-15T21:32:16.164Z,2.30
2023-04-15T21:34:44.211Z,2.00
2023-04-15T21:37:13.456Z,1.92
2023-04-15T21:39:41.323Z,2.38
2023-04-15T21:42:09.335Z,2.22
2023-04-15T21:44:37.248Z,2.25
2023-04-15T21:47:05.262Z,2.13
2023-04-15T21:49:33.453Z,2.47
2023-04-15T21:52:01.804Z,2.40
2023-04-15T21:54:31.380Z,2.53
2023-04-15T21:56:59.369Z,1.90
2023-04-15T21:59:27.344Z,2.35
2023-04-15T22:01:55.849Z,2.67
2023-04-15T22:04:24.068Z,2.33
2023-04-15T22:06:52.471Z,2.47
2023-04-15T22:09:20.735Z,2.40
2023-04-15T22:11:50.472Z,2.78
2023-04-15T22:14:18.416Z,2.25
2023-04-15T22:16:46.412Z,2.58
2023-04-15T22:19:14.256Z,2.20
2023-04-15T22:21:43.101Z,2.42
2023-04-15T22:24:33.236Z,2.50
2023-04-15T22:27:00.889Z,2.38
2023-04-15T22:29:28.738Z,2.00
2023-04-15T22:31:56.694Z,2.47
2023-04-15T22:34:24.605Z,1.98
2023-04-15T22:36:53.524Z,2.08
2023-04-15T22:39:21.773Z,2.17
2023-04-15T22:41:50.599Z,2.45
2023-04-15T22:44:20.246Z,2.55
2023-04-15T22:46:48.175Z,2.60
2023-04-15T22:49:17.411Z,2.47
2023-04-15T22:51:45.588Z,2.47
2023-04-15T22:54:13.606Z,2.75
2023-04-15T22:56:42.061Z,2.47
2023-04-15T22:59:10.150Z,3.10
2023-04-15T23:01:39.836Z,2.65
2023-04-15T23:04:10.101Z,2.90
2023-04-15T23:06:53.696Z,3.45
2023-04-15T23:09:22.668Z,3.15
2023-04-15T23:11:50.958Z,2.42
2023-04-15T23:14:19.017Z,2.40
2023-04-15T23:16:48.293Z,2.53
2023-04-15T23:19:16.364Z,2.70
2023-04-15T23:21:44.377Z,3.17
2023-04-15T23:24:12.949Z,3.55
2023-04-15T23:26:40.917Z,3.42
2023-04-15T23:29:09.568Z,3.05
2023-04-15T23:31:37.709Z,3.20
2023-04-15T23:34:07.001Z,3.63
2023-04-15T23:36:34.975Z,3.20
2023-04-15T23:39:02.933Z,2.92
2023-04-15T23:41:30.905Z,3.33
2023-04-15T23:43:58.819Z,3.47
2023-04-15T23:46:27.355Z,3.05
2023-04-15T23:48:55.527Z,3.00
2023-04-15T23:51:24.998Z,3.50
2023-04-15T23:53:53.358Z,3.63
2023-04-15T23:56:21.907Z,3.95
2023-04-15T23:58:49.809Z,4.80
